Time;durP1;ratioP1;P1;durP2;ratioP2;P2;SDS_P1;SDS_P2;PMS_P1;PMS_P2;Temp;Humidity;BMP_temperature;BMP_pressure;BME280_temperature;BME280_humidity;BME280_pressure;Samples;Min_cycle;Max_cycle;Signal;HPM_P1;HPM_P2
2020/12/11 00:03:39;;;;;;;110.75;42.22;;;;;;;0.86;70.52;99167.44;10439830;28;20049;-69
2020/12/11 00:08:40;;;;;;;103.70;40.95;;;;;;;1.04;70.30;99161.28;10457676;28;20053;-69
2020/12/11 00:13:42;;;;;;;106.60;39.45;;;;;;;1.39;68.72;99166.16;10458768;28;20115;-69
2020/12/11 00:18:43;;;;;;;104.85;39.38;;;;;;;1.27;69.23;99167.13;10459458;28;20100;-69
2020/12/11 00:23:44;;;;;;;102.65;39.30;;;;;;;1.22;69.28;99157.69;10457589;28;20064;-69
2020/12/11 00:28:46;;;;;;;95.53;36.25;;;;;;;1.16;69.54;99163.78;10457241;28;20052;-69
2020/12/11 00:33:47;;;;;;;100.80;38.08;;;;;;;1.34;69.01;99143.78;10457945;28;20045;-65
2020/12/11 00:38:48;;;;;;;103.72;38.63;;;;;;;1.56;68.36;99147.03;10467004;28;20083;-66
2020/12/11 00:43:49;;;;;;;104.75;38.30;;;;;;;1.18;69.55;99153.41;10465264;28;20049;-66
2020/12/11 00:48:52;;;;;;;105.22;40.60;;;;;;;1.55;68.54;99142.72;10463830;28;20053;-65
2020/12/11 00:53:53;;;;;;;108.72;39.35;;;;;;;1.52;68.25;99141.03;10446753;28;20160;-66
2020/12/11 00:58:55;;;;;;;103.07;39.80;;;;;;;1.31;69.33;99138.63;10465635;28;20041;-66
2020/12/11 01:03:56;;;;;;;103.00;37.42;;;;;;;1.36;68.92;99129.09;10465061;28;20499;-66
2020/12/11 01:08:58;;;;;;;111.75;39.20;;;;;;;1.29;69.67;99130.88;10464473;28;20041;-66
2020/12/11 01:13:59;;;;;;;107.35;40.30;;;;;;;1.47;69.04;99132.44;10465473;28;20047;-67
2020/12/11 01:19:00;;;;;;;108.88;40.50;;;;;;;1.47;69.01;99124.66;10463962;28;20490;-66
2020/12/11 01:24:01;;;;;;;100.13;38.20;;;;;;;1.49;68.83;99123.75;10465524;28;20045;-67
2020/12/11 01:29:02;;;;;;;107.25;39.42;;;;;;;1.59;68.87;99121.09;10463746;28;20108;-66
2020/12/11 01:34:03;;;;;;;96.60;37.17;;;;;;;1.20;69.69;99115.44;10463688;28;20067;-66
2020/12/11 01:39:04;;;;;;;101.68;37.45;;;;;;;1.37;69.27;99121.28;10463906;28;20474;-66
2020/12/11 01:44:12;;;;;;;108.95;39.65;;;;;;;1.59;68.67;99119.34;10464226;28;20388;-67
2020/12/11 01:49:14;;;;;;;106.90;39.50;;;;;;;1.63;68.46;99120.19;10462650;28;20045;-66
2020/12/11 01:54:16;;;;;;;105.28;39.55;;;;;;;1.45;69.00;99116.91;10464045;28;20052;-66
2020/12/11 01:59:30;;;;;;;112.47;41.17;;;;;;;1.30;69.75;99113.63;10463114;28;20045;-66
2020/12/11 02:04:36;;;;;;;104.53;39.75;;;;;;;1.41;69.37;99117.81;10464442;28;20045;-66
2020/12/11 02:09:38;;;;;;;115.27;42.63;;;;;;;1.37;69.41;99099.72;10464340;28;20049;-66
2020/12/11 02:14:39;;;;;;;127.18;43.83;;;;;;;0.94;70.95;99105.28;10463936;28;20064;-66
2020/12/11 02:19:40;;;;;;;113.03;41.03;;;;;;;1.51;69.13;99103.06;10445342;28;20055;-65
2020/12/11 02:24:41;;;;;;;113.82;42.08;;;;;;;1.60;69.02;99095.19;10462748;28;20125;-66
2020/12/11 02:29:42;;;;;;;117.40;42.67;;;;;;;1.23;69.98;99100.72;10460175;28;20045;-67
2020/12/11 02:34:44;;;;;;;109.47;40.45;;;;;;;1.36;69.73;99096.28;10443317;28;20072;-66
2020/12/11 02:39:45;;;;;;;121.97;42.25;;;;;;;1.67;68.75;99089.03;10461011;28;20061;-67
2020/12/11 02:44:46;;;;;;;118.95;41.47;;;;;;;1.15;70.20;99087.00;10460519;28;20037;-66
2020/12/11 02:49:47;;;;;;;111.57;41.95;;;;;;;1.66;68.71;99078.72;10443910;28;20115;-66
2020/12/11 02:54:48;;;;;;;102.10;38.15;;;;;;;1.63;68.64;99076.16;10442548;28;20405;-66
2020/12/11 02:59:49;;;;;;;116.70;40.67;;;;;;;1.26;69.67;99064.44;10459695;28;20049;-68
2020/12/11 03:04:51;;;;;;;113.43;40.50;;;;;;;1.62;68.61;99064.94;10460445;28;20135;-66
2020/12/11 03:09:51;;;;;;;105.78;39.35;;;;;;;1.44;69.51;99053.03;10460579;28;20049;-66
2020/12/11 03:14:53;;;;;;;101.28;38.20;;;;;;;1.76;68.50;99039.72;10459370;28;20048;-66
2020/12/11 03:19:54;;;;;;;99.40;38.92;;;;;;;1.46;69.44;99032.28;10460251;28;20045;-68
2020/12/11 03:24:55;;;;;;;94.80;37.60;;;;;;;1.58;68.86;99037.34;10460721;28;20041;-67
2020/12/11 03:29:56;;;;;;;92.95;36.10;;;;;;;1.87;67.85;99028.38;10441061;28;20041;-66
2020/12/11 03:34:57;;;;;;;93.32;34.47;;;;;;;1.77;67.94;99020.72;10459681;28;20483;-67
2020/12/11 03:39:58;;;;;;;83.90;35.72;;;;;;;1.74;67.98;99018.16;10459818;28;20059;-66
2020/12/11 03:44:59;;;;;;;83.45;33.38;;;;;;;1.63;68.23;99014.81;10459442;28;20055;-66
2020/12/11 03:50:00;;;;;;;86.57;35.00;;;;;;;1.68;68.17;99022.53;10459210;28;20047;-66
2020/12/11 03:55:01;;;;;;;83.53;33.20;;;;;;;1.60;68.23;99025.25;10458747;28;20048;-66
2020/12/11 04:00:04;;;;;;;89.93;35.88;;;;;;;1.59;68.12;99015.75;10459570;28;20049;-67
2020/12/11 04:05:06;;;;;;;80.30;34.00;;;;;;;1.66;68.11;99019.13;10459689;28;20045;-66
2020/12/11 04:10:07;;;;;;;75.93;32.75;;;;;;;1.77;67.94;99006.88;10461855;28;20401;-65
2020/12/11 04:15:09;;;;;;;77.03;32.90;;;;;;;1.81;67.89;99002.53;10467711;28;20072;-66
2020/12/11 04:20:10;;;;;;;71.70;32.08;;;;;;;1.76;67.92;99000.00;10466818;28;20071;-65
2020/12/11 04:25:11;;;;;;;73.32;31.55;;;;;;;1.72;67.71;98996.56;10446920;28;20091;-66
2020/12/11 04:30:12;;;;;;;63.75;30.85;;;;;;;1.51;68.89;98991.69;10464225;28;20048;-65
2020/12/11 04:35:13;;;;;;;71.45;31.10;;;;;;;1.72;68.17;98987.94;10464891;28;20037;-65
2020/12/11 04:40:16;;;;;;;79.03;32.50;;;;;;;1.84;67.75;98977.44;10464747;28;20577;-64
2020/12/11 04:45:18;;;;;;;67.32;31.35;;;;;;;1.71;68.28;98978.47;10465870;28;20044;-67
2020/12/11 04:50:19;;;;;;;69.30;32.10;;;;;;;1.65;68.30;98975.97;10465223;28;20514;-66
2020/12/11 04:55:20;;;;;;;67.25;30.73;;;;;;;1.81;68.01;98963.66;10446286;28;20143;-64
2020/12/11 05:00:23;;;;;;;75.47;32.60;;;;;;;1.73;68.25;98953.44;10463221;28;20095;-65
2020/12/11 05:05:24;;;;;;;75.20;31.48;;;;;;;1.55;68.99;98945.88;10445131;28;20076;-66
2020/12/11 05:10:25;;;;;;;68.88;31.23;;;;;;;1.52;68.87;98933.84;10463550;28;20048;-66
2020/12/11 05:15:28;;;;;;;66.85;32.75;;;;;;;1.37;69.52;98929.69;10464505;28;20059;-67
2020/12/11 05:20:30;;;;;;;71.75;32.22;;;;;;;1.28;70.17;98916.84;10469123;28;20045;-66
2020/12/11 05:25:31;;;;;;;71.30;32.05;;;;;;;1.55;69.30;98918.25;10464712;28;20410;-66
2020/12/11 05:30:32;;;;;;;82.03;34.75;;;;;;;1.42;69.65;98909.78;10462851;28;20045;-65
2020/12/11 05:35:33;;;;;;;72.03;33.58;;;;;;;1.40;69.64;98897.72;10461898;28;20156;-66
2020/12/11 05:40:39;;;;;;;79.03;32.38;;;;;;;1.38;69.79;98896.91;10462458;28;20497;-66
2020/12/11 05:46:06;;;;;;;81.32;33.90;;;;;;;1.23;70.15;98887.59;10462947;28;20041;-66
2020/12/11 05:51:15;;;;;;;;;;;;;;;1.20;70.24;98895.41;10460785;28;20063;-64
2020/12/11 05:56:16;;;;;;;82.72;34.53;;;;;;;1.05;71.08;98886.06;10467108;28;19967;-65
2020/12/11 06:01:18;;;;;;;81.72;34.97;;;;;;;1.30;70.83;98883.19;10466497;28;20418;-66
2020/12/11 06:06:22;;;;;;;90.18;36.40;;;;;;;1.22;70.76;98883.28;10462144;28;20049;-67
2020/12/11 06:11:33;;;;;;;94.80;37.80;;;;;;;1.29;71.24;98876.31;10462018;28;20052;-69
2020/12/11 06:16:37;;;;;;;92.45;37.35;;;;;;;1.35;71.31;98877.06;10443150;28;20471;-68
2020/12/11 06:21:39;;;;;;;106.22;38.20;;;;;;;1.25;71.67;98873.75;10459900;28;20228;-68
2020/12/11 06:26:55;;;;;;;89.50;37.28;;;;;;;1.20;71.28;98875.56;10459697;28;20049;-69
2020/12/11 06:31:56;;;;;;;101.55;39.85;;;;;;;1.25;71.91;98875.50;10468552;23;20044;-64
2020/12/11 06:36:57;;;;;;;100.05;40.33;;;;;;;1.38;71.66;98881.38;10457261;28;20041;-64
2020/12/11 06:41:59;;;;;;;105.43;39.70;;;;;;;1.13;72.24;98884.25;10440795;28;20068;-65
2020/12/11 06:47:08;;;;;;;107.43;40.00;;;;;;;1.27;72.47;98876.31;10458296;28;20192;-64
2020/12/11 06:52:10;;;;;;;94.07;36.25;;;;;;;1.08;72.92;98880.03;10456202;28;20055;-64
2020/12/11 06:57:30;;;;;;;100.88;39.25;;;;;;;1.09;72.35;98890.34;10456320;28;20045;-63
2020/12/11 07:02:31;;;;;;;103.47;39.30;;;;;;;1.12;73.08;98884.28;10457393;28;20049;-63
2020/12/11 07:07:32;;;;;;;96.97;37.08;;;;;;;1.32;72.34;98878.84;10455927;28;20048;-65
2020/12/11 07:12:34;;;;;;;101.07;38.85;;;;;;;1.32;72.40;98858.97;10438453;28;20049;-63
2020/12/11 07:17:35;;;;;;;92.32;37.42;;;;;;;1.22;72.69;98853.06;10456022;28;20142;-64
2020/12/11 07:22:36;;;;;;;101.10;38.88;;;;;;;1.22;73.16;98853.06;10456257;28;20053;-63
2020/12/11 07:27:37;;;;;;;97.13;39.58;;;;;;;1.27;72.43;98847.84;10455705;28;20049;-63
2020/12/11 07:32:39;;;;;;;108.65;41.17;;;;;;;1.40;73.59;98856.31;10455203;28;20045;-63
2020/12/11 07:37:56;;;;;;;104.65;41.95;;;;;;;1.71;72.86;98843.75;10459233;28;20037;-64
2020/12/11 07:42:59;;;;;;;125.50;44.13;;;;;;;1.71;72.81;98847.22;10461053;28;20045;-62
2020/12/11 07:48:00;;;;;;;107.65;42.35;;;;;;;1.99;72.15;98845.06;10464029;28;20044;-63
2020/12/11 07:53:07;;;;;;;113.82;42.28;;;;;;;1.98;72.19;98842.47;10463656;28;20055;-64
2020/12/11 07:58:08;;;;;;;109.87;42.70;;;;;;;2.18;71.53;98839.56;10464236;28;20041;-65
2020/12/11 08:03:09;;;;;;;110.45;40.97;;;;;;;2.29;70.70;98837.63;10463432;28;20052;-64
2020/12/11 08:08:10;;;;;;;105.60;40.85;;;;;;;2.33;70.90;98841.88;10445012;28;20045;-65
2020/12/11 08:13:14;;;;;;;107.55;41.63;;;;;;;2.34;70.91;98834.94;10462844;28;20056;-63
2020/12/11 08:18:20;;;;;;;98.03;41.45;;;;;;;2.23;71.82;98825.63;10462980;28;20134;-64
2020/12/11 08:23:44;;;;;;;100.65;39.40;;;;;;;2.53;70.51;98816.44;10463288;28;20041;-63
2020/12/11 08:29:04;;;;;;;83.65;37.67;;;;;;;2.73;69.99;98810.84;10462428;28;20048;-62
2020/12/11 08:34:11;;;;;;;79.32;35.83;;;;;;;2.71;70.27;98804.00;10462108;28;20064;-63
2020/12/11 08:39:25;;;;;;;72.82;33.08;;;;;;;2.81;70.00;98802.94;10462395;28;20040;-63
2020/12/11 08:49:41;;;;;;;75.20;32.40;;;;;;;2.78;70.13;98808.19;10443412;28;20051;-63
2020/12/11 08:54:43;;;;;;;76.97;34.83;;;;;;;2.92;69.49;98816.56;10460350;28;20479;-63
2020/12/11 08:59:44;;;;;;;76.57;35.63;;;;;;;2.68;70.43;98812.69;10460830;28;20279;-64
2020/12/11 09:04:45;;;;;;;74.72;35.78;;;;;;;3.03;69.76;98813.72;10460599;28;20140;-63
2020/12/11 09:09:47;;;;;;;86.93;37.80;;;;;;;3.11;69.47;98823.97;10460218;28;20111;-63
2020/12/11 09:14:49;;;;;;;70.97;33.10;;;;;;;3.08;69.78;98818.81;10442657;28;20099;-63
2020/12/11 09:19:50;;;;;;;67.03;31.65;;;;;;;3.38;69.11;98809.53;10459847;28;20124;-62
2020/12/11 09:24:51;;;;;;;58.30;30.10;;;;;;;3.40;69.29;98800.78;10460283;28;20044;-63
2020/12/11 09:29:54;;;;;;;54.55;29.23;;;;;;;3.62;68.40;98808.09;10442387;28;20053;-63
2020/12/11 09:34:56;;;;;;;53.60;28.55;;;;;;;3.79;67.88;98806.81;10460584;28;20045;-64
2020/12/11 09:39:57;;;;;;;58.42;27.52;;;;;;;3.65;68.69;98798.50;10460568;28;20123;-63
2020/12/11 09:50:50;;;;;;;55.70;26.70;;;;;;;3.90;68.02;98771.91;10459778;28;20093;-63
2020/12/11 09:55:36;;;;;;;34.17;25.90;;;;;;;4.06;67.10;98770.63;10448664;28;20049;-63
2020/12/11 10:00:41;;;;;;;30.08;24.02;;;;;;;4.23;65.93;98763.22;10459319;28;20041;-63
2020/12/11 10:05:42;;;;;;;27.95;23.17;;;;;;;4.20;66.04;98763.31;10458710;28;20384;-63
2020/12/11 10:10:43;;;;;;;29.08;22.83;;;;;;;4.31;65.73;98750.03;10458100;28;20092;-63
2020/12/11 10:15:44;;;;;;;26.20;22.75;;;;;;;4.26;66.30;98738.91;10458775;28;20128;-64
2020/12/11 10:20:45;;;;;;;30.83;23.48;;;;;;;4.41;65.86;98729.81;10459146;28;20447;-63
2020/12/11 10:25:47;;;;;;;23.83;21.52;;;;;;;4.37;65.82;98721.25;10458225;28;20049;-63
2020/12/11 10:30:48;;;;;;;25.05;22.20;;;;;;;4.51;65.36;98707.84;10457826;28;20136;-63
2020/12/11 10:35:50;;;;;;;23.98;21.25;;;;;;;4.49;65.46;98699.25;10440255;28;20071;-65
2020/12/11 10:40:51;;;;;;;26.38;23.15;;;;;;;4.58;65.57;98692.91;10457978;28;20056;-64
2020/12/11 10:45:52;;;;;;;28.77;23.05;;;;;;;4.53;65.17;98685.25;10457234;28;20045;-63
2020/12/11 10:50:53;;;;;;;34.72;23.95;;;;;;;4.44;65.64;98683.75;10457328;28;20051;-63
2020/12/11 10:55:54;;;;;;;27.90;21.75;;;;;;;4.45;65.31;98671.59;10458165;28;20602;-63
2020/12/11 11:00:56;;;;;;;24.60;21.35;;;;;;;4.39;65.45;98661.38;10457139;28;20520;-63
2020/12/11 11:06:02;;;;;;;20.90;18.73;;;;;;;4.47;64.63;98651.56;10457160;28;20043;-64
2020/12/11 11:11:04;;;;;;;22.27;20.10;;;;;;;4.64;64.43;98643.28;10457427;28;20379;-63
2020/12/11 11:16:05;;;;;;;29.70;21.40;;;;;;;4.61;64.96;98633.81;10456034;28;20056;-64
2020/12/11 11:21:35;;;;;;;30.73;22.88;;;;;;;4.51;65.42;98627.16;10455966;28;20095;-64
2020/12/11 11:26:44;;;;;;;30.27;21.83;;;;;;;4.78;64.95;98621.16;10455952;28;20124;-64
2020/12/11 11:31:46;;;;;;;32.85;22.60;;;;;;;4.61;64.98;98617.38;10455748;28;20041;-64
2020/12/11 11:36:52;;;;;;;28.52;21.73;;;;;;;4.84;64.31;98611.44;10455986;28;20513;-64
2020/12/11 11:41:54;;;;;;;26.77;21.88;;;;;;;5.04;63.61;98607.28;10457900;28;20104;-64
2020/12/11 11:46:57;;;;;;;21.15;19.23;;;;;;;4.92;63.50;98605.09;10462192;28;20069;-64
2020/12/11 11:52:09;;;;;;;25.73;19.88;;;;;;;5.03;63.77;98605.59;10460339;28;20124;-64
2020/12/11 11:57:10;;;;;;;27.17;21.30;;;;;;;5.16;63.76;98584.38;10460229;28;20468;-64
2020/12/11 12:02:12;;;;;;;27.90;21.27;;;;;;;5.20;62.94;98583.34;10460732;28;20141;-66
2020/12/11 12:07:13;;;;;;;23.13;20.25;;;;;;;5.50;62.43;98581.47;10461544;28;20064;-64
2020/12/11 12:12:14;;;;;;;24.70;21.00;;;;;;;5.74;61.56;98574.53;10461165;28;20052;-65
2020/12/11 12:17:18;;;;;;;23.92;21.38;;;;;;;5.70;61.73;98573.78;10462431;28;20051;-63
2020/12/11 12:23:13;;;;;;;27.48;21.60;;;;;;;5.69;61.32;98576.47;10461777;28;20060;-65
2020/12/11 12:28:15;;;;;;;27.40;21.52;;;;;;;5.43;61.83;98569.56;10460922;28;20040;-63
2020/12/11 12:34:12;;;;;;;22.40;20.00;;;;;;;5.17;62.50;98565.22;10526975;22;20090;-65
2020/12/11 12:43:40;;;;;;;26.50;20.50;;;;;;;5.05;62.99;98554.31;10548007;28;20048;-64
2020/12/11 12:48:41;;;;;;;23.35;20.98;;;;;;;4.99;62.86;98551.06;10529144;28;20048;-65
2020/12/11 12:53:43;;;;;;;25.02;20.90;;;;;;;4.94;62.91;98547.75;10512647;28;20063;-65
2020/12/11 12:58:44;;;;;;;33.33;22.13;;;;;;;5.06;62.80;98544.75;10547905;28;20056;-66
2020/12/11 13:08:47;;;;;;;29.38;22.58;;;;;;;5.05;62.79;98532.63;10547407;28;20044;-64
2020/12/11 13:13:48;;;;;;;35.35;23.13;;;;;;;5.09;62.84;98523.81;10547349;28;20118;-65
2020/12/11 13:18:49;;;;;;;35.45;25.77;;;;;;;5.29;62.41;98529.19;10546433;28;20040;-64
2020/12/11 13:29:12;;;;;;;52.92;31.83;;;;;;;5.12;63.93;98528.91;10546346;28;20048;-65
2020/12/11 13:34:13;;;;;;;55.58;32.53;;;;;;;4.91;64.62;98537.44;10544937;28;20508;-64
2020/12/11 13:39:15;;;;;;;66.53;35.70;;;;;;;4.74;65.29;98546.66;10546476;28;20493;-65
2020/12/11 13:44:16;;;;;;;68.75;36.15;;;;;;;4.73;65.27;98531.91;10546574;28;20412;-65
2020/12/11 13:49:18;;;;;;;62.47;36.35;;;;;;;4.68;65.18;98541.63;10545122;28;20500;-64
2020/12/11 13:54:23;;;;;;;64.03;35.38;;;;;;;4.66;65.10;98534.78;10544988;28;20109;-65
2020/12/11 13:59:25;;;;;;;62.95;35.60;;;;;;;4.63;65.34;98535.72;10545528;28;20425;-63
2020/12/11 14:04:26;;;;;;;68.93;35.42;;;;;;;4.39;66.07;98539.94;10544324;28;20040;-66
2020/12/11 14:09:28;;;;;;;60.92;34.15;;;;;;;4.32;66.42;98537.56;10545622;28;20396;-66
2020/12/11 14:14:29;;;;;;;55.72;33.13;;;;;;;4.32;66.25;98542.78;10544602;28;20052;-65
2020/12/11 14:24:36;;;;;;;63.28;34.20;;;;;;;4.41;65.83;98540.75;10525193;28;20093;-65
2020/12/11 14:29:38;;;;;;;51.15;30.73;;;;;;;4.43;65.62;98541.56;10527189;28;20048;-66
2020/12/11 14:34:44;;;;;;;46.47;28.13;;;;;;;4.32;65.35;98538.44;10546482;28;20040;-63
2020/12/11 14:39:45;;;;;;;47.25;27.90;;;;;;;4.50;64.92;98537.00;10525889;28;20050;-65
2020/12/11 14:44:46;;;;;;;36.35;25.23;;;;;;;4.53;64.71;98524.75;10543383;28;20058;-66
2020/12/11 14:49:47;;;;;;;27.55;23.20;;;;;;;4.26;64.86;98523.88;10543653;28;20489;-66
2020/12/11 14:54:48;;;;;;;31.67;22.75;;;;;;;4.26;64.61;98517.81;10524784;28;20520;-65
2020/12/11 14:59:50;;;;;;;24.52;18.00;;;;;;;4.48;63.27;98516.25;10526563;28;20447;-64
2020/12/11 15:04:55;;;;;;;23.75;18.90;;;;;;;4.30;63.91;98517.66;10544480;28;20040;-66
2020/12/11 15:09:56;;;;;;;19.88;16.90;;;;;;;4.34;63.58;98513.22;10542477;28;20048;-66
2020/12/11 15:14:58;;;;;;;17.55;15.95;;;;;;;4.24;63.74;98506.59;10543581;28;20036;-66
2020/12/11 15:19:59;;;;;;;16.38;14.70;;;;;;;4.42;62.93;98513.81;10541483;28;20094;-66
2020/12/11 15:25:00;;;;;;;16.77;15.35;;;;;;;4.49;62.86;98512.75;10541721;28;20469;-64
2020/12/11 15:30:01;;;;;;;16.55;15.15;;;;;;;4.59;62.66;98507.25;10522647;28;20495;-65
2020/12/11 15:35:03;;;;;;;17.02;15.60;;;;;;;4.40;63.30;98502.63;10541798;28;20036;-66
2020/12/11 15:40:04;;;;;;;16.73;15.32;;;;;;;4.44;63.06;98504.22;10541208;28;20048;-67
2020/12/11 15:45:06;;;;;;;16.33;14.85;;;;;;;4.47;63.27;98501.53;10541638;28;20147;-66
2020/12/11 15:50:07;;;;;;;17.95;16.45;;;;;;;4.46;63.07;98498.97;10539362;28;20055;-66
2020/12/11 15:55:08;;;;;;;14.27;12.93;;;;;;;4.50;62.30;98495.38;10523884;28;20066;-66
2020/12/11 16:00:09;;;;;;;14.18;12.88;;;;;;;4.34;62.84;98491.53;10541960;28;20050;-66
2020/12/11 16:05:10;;;;;;;13.20;12.10;;;;;;;4.35;62.82;98496.72;10542504;28;20054;-67
2020/12/11 16:10:12;;;;;;;16.55;14.18;;;;;;;4.20;63.57;98494.56;10549613;28;20491;-66
2020/12/11 16:15:13;;;;;;;15.73;14.15;;;;;;;4.32;63.34;98489.00;10550878;28;20377;-65
2020/12/11 16:20:16;;;;;;;14.35;13.15;;;;;;;4.34;63.01;98484.63;10549488;28;20040;-65
2020/12/11 16:25:17;;;;;;;14.50;13.30;;;;;;;4.41;63.13;98480.06;10549146;28;20058;-65
2020/12/11 16:30:18;;;;;;;15.55;14.25;;;;;;;4.21;63.29;98476.34;10513972;28;20165;-65
2020/12/11 16:35:20;;;;;;;14.15;12.95;;;;;;;4.21;63.36;98470.28;10549518;28;20085;-65
2020/12/11 16:40:21;;;;;;;14.02;12.93;;;;;;;4.13;63.58;98485.28;10548583;28;20051;-64
2020/12/11 16:45:22;;;;;;;14.32;13.15;;;;;;;4.28;63.38;98482.19;10548036;28;20143;-66
2020/12/11 16:50:24;;;;;;;13.88;12.63;;;;;;;3.97;64.07;98485.72;10531256;28;20040;-64
2020/12/11 16:55:26;;;;;;;13.50;12.40;;;;;;;3.93;63.93;98480.66;10547961;28;20040;-66
2020/12/11 17:00:30;;;;;;;13.70;12.30;;;;;;;4.15;63.41;98476.50;10548295;28;20044;-65
2020/12/11 17:10:32;;;;;;;13.65;12.55;;;;;;;4.02;63.59;98469.97;10543237;28;20052;-67
2020/12/11 17:15:33;;;;;;;16.15;14.95;;;;;;;3.77;64.45;98459.47;10545694;28;20050;-66
2020/12/11 17:20:35;;;;;;;13.02;11.93;;;;;;;3.86;63.88;98451.41;10546619;28;20052;-65
2020/12/11 17:25:36;;;;;;;14.55;13.25;;;;;;;3.81;64.18;98448.09;10546149;28;20036;-65
2020/12/11 17:30:45;;;;;;;14.38;13.18;;;;;;;3.77;64.28;98442.13;10544816;28;20051;-65
2020/12/11 17:35:46;;;;;;;13.48;12.48;;;;;;;3.83;64.04;98446.28;10545332;28;20047;-64
2020/12/11 17:40:48;;;;;;;12.98;11.77;;;;;;;3.83;63.75;98442.84;10527926;28;20048;-65
2020/12/11 17:45:49;;;;;;;13.52;12.48;;;;;;;3.76;64.15;98424.84;10545302;28;20051;-67
2020/12/11 17:50:50;;;;;;;14.18;12.75;;;;;;;3.92;63.33;98435.63;10545075;28;20502;-66
2020/12/11 17:55:51;;;;;;;13.55;12.45;;;;;;;3.78;63.84;98433.44;10525832;28;20151;-64
2020/12/11 18:00:52;;;;;;;14.93;13.63;;;;;;;3.74;63.79;98431.81;10509461;28;20402;-65
2020/12/11 18:05:54;;;;;;;15.57;14.38;;;;;;;3.83;63.70;98435.06;10545423;28;20504;-66
2020/12/11 18:10:55;;;;;;;15.02;13.82;;;;;;;3.97;62.97;98425.06;10545345;28;20061;-66
2020/12/11 18:15:59;;;;;;;16.27;14.88;;;;;;;3.78;63.63;98424.78;10525078;28;20055;-66
2020/12/11 18:21:05;;;;;;;15.07;13.77;;;;;;;3.84;63.28;98409.00;10546629;28;20512;-66
2020/12/11 18:26:10;;;;;;;14.60;13.45;;;;;;;3.92;62.65;98416.56;10526494;28;20048;-65
2020/12/11 18:31:12;;;;;;;15.95;14.65;;;;;;;3.86;62.89;98420.22;10555336;22;20320;-65
2020/12/11 18:36:14;;;;;;;15.25;14.05;;;;;;;3.72;63.24;98417.19;10543142;28;20036;-65
2020/12/11 18:41:16;;;;;;;15.10;13.90;;;;;;;3.84;62.72;98415.94;10543579;28;20127;-64
2020/12/11 18:46:17;;;;;;;14.82;13.73;;;;;;;3.82;62.86;98422.97;10526404;28;20044;-65
2020/12/11 18:51:23;;;;;;;14.25;13.15;;;;;;;3.79;63.08;98413.50;10525533;28;20520;-65
2020/12/11 19:01:30;;;;;;;16.40;15.07;;;;;;;3.66;63.32;98410.41;10543376;28;20067;-66
2020/12/11 19:06:32;;;;;;;16.33;14.93;;;;;;;3.64;63.38;98401.81;10525015;28;20044;-66
2020/12/11 19:11:33;;;;;;;16.88;15.57;;;;;;;3.49;63.54;98392.72;10544702;28;20044;-64
2020/12/11 19:16:35;;;;;;;15.50;13.88;;;;;;;3.60;62.91;98394.16;10543857;28;20486;-64
2020/12/11 19:21:37;;;;;;;15.50;14.20;;;;;;;3.64;62.93;98395.78;10542452;28;20135;-64
2020/12/11 19:26:38;;;;;;;15.73;14.48;;;;;;;3.56;63.04;98392.56;10542638;28;20093;-65
2020/12/11 19:31:43;;;;;;;16.38;14.88;;;;;;;3.42;63.58;98395.56;10524744;28;20040;-67
2020/12/11 19:36:44;;;;;;;15.80;14.50;;;;;;;3.42;63.77;98399.00;10541801;28;20130;-66
2020/12/11 19:41:47;;;;;;;16.00;14.70;;;;;;;3.43;63.66;98382.53;10530788;28;20048;-64
2020/12/11 19:46:49;;;;;;;17.98;16.23;;;;;;;3.41;63.77;98376.53;10556334;28;20126;-65
2020/12/11 19:51:50;;;;;;;17.42;16.02;;;;;;;3.29;63.93;98382.91;10553524;28;20044;-65
2020/12/11 19:56:52;;;;;;;18.50;17.00;;;;;;;3.39;63.78;98380.91;10553781;28;20130;-63
2020/12/11 20:01:54;;;;;;;18.75;16.67;;;;;;;3.33;63.83;98381.09;10554856;28;20089;-65
2020/12/11 20:12:08;;;;;;;18.85;17.25;;;;;;;3.15;64.82;98387.66;10555615;28;20109;-65
2020/12/11 20:17:13;;;;;;;19.67;18.17;;;;;;;2.98;65.26;98380.34;10552331;28;20048;-64
2020/12/11 20:22:14;;;;;;;21.00;19.30;;;;;;;2.88;65.37;98378.91;10553737;28;20044;-65
2020/12/11 20:27:17;;;;;;;20.58;18.98;;;;;;;2.95;65.26;98371.78;10554771;28;20409;-65
2020/12/11 20:32:18;;;;;;;21.08;19.40;;;;;;;3.03;65.25;98372.41;10548841;28;20056;-65
2020/12/11 20:37:20;;;;;;;21.23;19.25;;;;;;;3.04;65.13;98369.78;10551684;28;20064;-65
2020/12/11 20:42:21;;;;;;;20.45;18.75;;;;;;;2.86;65.70;98370.28;10551347;28;20054;-65
2020/12/11 20:47:22;;;;;;;20.88;18.73;;;;;;;3.04;64.99;98363.72;10550419;28;20489;-66
2020/12/11 20:52:23;;;;;;;19.95;18.33;;;;;;;2.82;65.70;98360.88;10549038;28;20040;-65
2020/12/11 20:57:25;;;;;;;20.65;19.05;;;;;;;2.93;65.19;98353.66;10533168;28;20089;-66
2020/12/11 21:02:28;;;;;;;22.17;20.20;;;;;;;2.80;65.82;98347.13;10550011;28;20167;-64
2020/12/11 21:07:29;;;;;;;21.77;19.98;;;;;;;2.65;66.46;98337.97;10547983;28;20118;-65
2020/12/11 21:12:31;;;;;;;22.40;20.23;;;;;;;2.80;65.99;98356.66;10547244;28;20125;-65
2020/12/11 21:17:32;;;;;;;24.42;22.27;;;;;;;2.57;66.64;98352.03;10548918;28;20075;-65
2020/12/11 21:22:34;;;;;;;23.92;22.02;;;;;;;2.69;66.48;98347.38;10547604;28;20051;-64
2020/12/11 21:27:36;;;;;;;23.27;21.27;;;;;;;2.48;66.65;98340.19;10547237;28;20451;-66
2020/12/11 21:32:54;;;;;;;24.95;22.75;;;;;;;2.58;66.42;98346.00;10545908;28;20044;-65
2020/12/11 21:37:55;;;;;;;24.50;22.33;;;;;;;2.63;66.42;98346.72;10545486;28;20047;-64
2020/12/11 21:42:58;;;;;;;23.52;21.63;;;;;;;2.58;66.27;98344.25;10545776;28;20121;-65
2020/12/11 21:48:00;;;;;;;25.80;23.63;;;;;;;2.52;66.42;98344.38;10544767;28;20036;-65
2020/12/11 21:53:01;;;;;;;23.70;21.52;;;;;;;2.50;66.41;98335.81;10543825;28;20409;-65
2020/12/11 21:58:04;;;;;;;23.58;21.45;;;;;;;2.55;66.44;98335.69;10544165;28;20557;-65
2020/12/11 22:03:06;;;;;;;23.08;21.15;;;;;;;2.46;66.38;98337.63;10546522;28;20052;-64
2020/12/11 22:08:07;;;;;;;22.98;21.02;;;;;;;2.48;66.34;98348.81;10544172;28;20035;-66
2020/12/11 22:13:08;;;;;;;21.02;19.23;;;;;;;2.49;66.38;98347.94;10526341;28;20147;-66
2020/12/11 22:18:09;;;;;;;21.52;19.73;;;;;;;2.19;67.30;98340.94;10546122;28;20049;-64
2020/12/11 22:23:13;;;;;;;20.60;18.90;;;;;;;2.51;66.38;98345.28;10543712;28;20123;-64
2020/12/11 22:28:15;;;;;;;20.30;18.52;;;;;;;2.48;66.13;98342.78;10525235;28;20040;-64
2020/12/11 22:33:18;;;;;;;20.05;18.25;;;;;;;2.32;66.64;98339.72;10543507;28;20085;-65
2020/12/11 22:38:20;;;;;;;18.95;17.45;;;;;;;2.18;66.87;98336.66;10525358;28;20047;-65
2020/12/11 22:43:22;;;;;;;19.38;17.88;;;;;;;2.16;66.91;98336.66;10543020;28;20044;-65
2020/12/11 22:48:25;;;;;;;20.15;18.55;;;;;;;2.26;66.78;98338.16;10542817;28;20040;-64
2020/12/11 22:53:26;;;;;;;20.73;19.02;;;;;;;2.30;66.57;98343.25;10542676;28;20052;-64
2020/12/11 22:58:27;;;;;;;20.80;19.10;;;;;;;2.33;66.55;98346.63;10542633;28;20508;-66
2020/12/11 23:03:28;;;;;;;19.83;18.30;;;;;;;2.12;66.98;98345.41;10542515;28;20067;-65
2020/12/11 23:08:30;;;;;;;20.30;18.55;;;;;;;2.27;66.65;98347.63;10542216;28;20044;-66
2020/12/11 23:13:31;;;;;;;19.23;17.73;;;;;;;2.21;66.66;98349.50;10541824;28;20557;-65
2020/12/11 23:18:32;;;;;;;19.85;18.25;;;;;;;2.33;66.12;98364.75;10541041;28;20051;-65
2020/12/11 23:23:34;;;;;;;19.83;18.20;;;;;;;2.35;66.00;98357.81;10540627;28;20090;-65
2020/12/11 23:28:36;;;;;;;21.25;19.30;;;;;;;2.30;66.26;98362.25;10540481;28;20036;-65
2020/12/11 23:33:38;;;;;;;20.20;18.67;;;;;;;2.13;66.88;98360.09;10543439;28;20059;-65
2020/12/11 23:38:39;;;;;;;19.58;18.17;;;;;;;2.25;66.48;98364.09;10522714;28;20069;-64
2020/12/11 23:43:41;;;;;;;18.88;17.33;;;;;;;2.08;66.74;98351.59;10540638;28;20127;-65
2020/12/11 23:48:42;;;;;;;17.63;16.20;;;;;;;2.07;66.60;98352.44;10542577;28;20067;-64
2020/12/11 23:53:43;;;;;;;18.75;17.35;;;;;;;1.91;67.01;98356.31;10539316;28;20067;-65
2020/12/11 23:58:44;;;;;;;19.20;17.80;;;;;;;2.00;66.76;98351.75;10538815;28;20146;-65
